Cevdet A — 9HTW9 — position and weather

sailwx.info

Track history (hours):
 
Tides and Currents Weather Stations Pressure Air Temp Water Temp Dewpoint Dewpoint Depression Visibility Wind Speed Wind Dir Waves Ship Positions

Cevdet A

Last reported at 2017-Oct-26 06:32 UTC. Time now 2017-Nov-23 07:38 UTC.
Position N 30°56' E 032°19'.
Warning: this ship's position is 28 days out of date.

Length 129 m; draft 7.7 m.

Type: Ship (hazmat cat C). MMSI: 249537000.

Date/timePositionNaut miles runAvg speedWind from/ knotsBaromVisibWave heightAir tempDewpointWater temp
2017-Oct-26 06:32N 30°56' E 032°19'0 8.8
2017-Oct-26 06:29N 30°57' E 032°19'4 8.8
2017-Oct-26 06:00N 31°01' E 032°19'4 8.6
2017-Oct-26 05:30N 31°05' E 032°18'  
2017-Oct-22 19:48N 33°59' E 031°42'5511.1
2017-Oct-22 14:51N 34°24' E 030°43'29410.6
2017-Oct-21 11:01N 37°23' E 025°55'011.5
2017-Oct-21 11:01N 37°23' E 025°55'510.9
2017-Oct-21 10:31N 37°26' E 025°49'510.5
2017-Oct-21 10:00N 37°31' E 025°47'511.2
2017-Oct-21 09:31N 37°36' E 025°45'611.3
2017-Oct-21 09:01N 37°41' E 025°43'611.0
2017-Oct-21 08:31N 37°47' E 025°41'12110.8
2017-Oct-20 21:18N 39°48' E 025°37'410.3
2017-Oct-20 20:57N 39°50' E 025°39'511.5
2017-Oct-20 20:30N 39°53' E 025°45'611.3
2017-Oct-20 20:00N 39°56' E 025°51'611.2
2017-Oct-20 19:30N 39°60' E 025°57'2310.2
2017-Oct-20 17:14N 40°11' E 026°23'1811.4
2017-Oct-20 15:41N 40°23' E 026°40'2 8.9
2017-Oct-20 15:25N 40°25' E 026°43'511.0
2017-Oct-20 14:55N 40°27' E 026°49'97 4.6
2017-Oct-19 18:05N 40°56' E 028°51'0 0.0
2017-Oct-19 17:59N 40°56' E 028°51'0 0.0
2017-Oct-19 17:08N 40°56' E 028°51'0 0.3
2017-Oct-19 16:49N 40°56' E 028°51'2 4.1
2017-Oct-19 16:24N 40°56' E 028°53'4 9.9
2017-Oct-19 16:00N 40°56' E 028°58'510.2
2017-Oct-19 15:30N 40°52' E 029°01'510.3
2017-Oct-19 14:59N 40°47' E 029°04'511.2
2017-Oct-19 14:31N 40°45' E 029°11'611.4
2017-Oct-19 14:00N 40°45' E 029°18'5 0.2
2017-Oct-18 10:23N 40°44' E 029°24'3 7.6
2017-Oct-18 10:00N 40°44' E 029°20'4 8.7
2017-Oct-18 09:31N 40°44' E 029°14'4 7.3
2017-Oct-18 09:00N 40°44' E 029°10'3 5.7
2017-Oct-18 08:30N 40°45' E 029°06'3 6.2
2017-Oct-18 07:59N 40°47' E 029°03'3 6.1
2017-Oct-18 07:31N 40°49' E 028°60'3 6.2
2017-Oct-18 07:01N 40°52' E 028°57'5 9.1
2017-Oct-18 06:29N 40°56' E 028°56'46 5.1
2017-Oct-17 21:21N 41°42' E 029°08'2811.2
2017-Oct-17 18:49N 42°10' E 029°07'310.9
2017-Oct-17 18:31N 42°14' E 029°07'611.0
2017-Oct-17 18:00N 42°19' E 029°07'611.2
2017-Oct-17 17:31N 42°25' E 029°07'611.3
2017-Oct-17 17:01N 42°30' E 029°08'611.2
2017-Oct-17 16:30N 42°36' E 029°08'611.5
2017-Oct-17 16:00N 42°42' E 029°08'611.4
2017-Oct-17 15:30N 42°47' E 029°08'611.4
2017-Oct-17 15:00N 42°53' E 029°08'611.5
2017-Oct-17 14:31N 42°59' E 029°08'611.3
2017-Oct-17 14:01N 43°05' E 029°07'611.3
2017-Oct-17 13:31N 43°10' E 029°07'611.2
2017-Oct-17 13:00N 43°16' E 029°07'611.3
2017-Oct-17 12:30N 43°21' E 029°07'611.1
2017-Oct-17 12:00N 43°27' E 029°07'510.7
2017-Oct-17 11:30N 43°32' E 029°06'510.7
2017-Oct-17 11:00N 43°37' E 029°03'511.0
2017-Oct-17 10:31N 43°42' E 028°59'611.0
2017-Oct-17 10:01N 43°47' E 028°56'510.9
2017-Oct-17 09:30N 43°52' E 028°53'510.9
2017-Oct-17 09:00N 43°57' E 028°50'510.7
2017-Oct-17 08:30N 44°01' E 028°46'510.7
2017-Oct-17 08:00N 44°06' E 028°42'4 7.1
2017-Oct-17 07:31N 44°09' E 028°40'0 0.2
2017-Oct-17 07:00N 44°09' E 028°40'0 0.0
2017-Oct-17 06:30N 44°09' E 028°40'0 0.0
2017-Oct-17 06:00N 44°09' E 028°40'0 0.0
2017-Oct-17 05:30N 44°09' E 028°40'0 0.0
2017-Oct-17 05:00N 44°09' E 028°40'0 0.0
2017-Oct-17 04:30N 44°09' E 028°40'0 0.0
2017-Oct-17 04:00N 44°09' E 028°40'0 0.0
2017-Oct-17 03:15N 44°09' E 028°40'0 0.0
2017-Oct-17 03:00N 44°09' E 028°40'0 0.0
2017-Oct-17 02:30N 44°09' E 028°40'0 0.0
2017-Oct-17 02:00N 44°09' E 028°40'0 0.0
2017-Oct-17 01:27N 44°09' E 028°40'0 0.0
2017-Oct-17 01:00N 44°09' E 028°40'0 0.0
2017-Oct-17 00:30N 44°09' E 028°40'0 0.0
2017-Oct-17 00:00N 44°09' E 028°40'0 0.0
2017-Oct-16 23:30N 44°09' E 028°40'0 0.0
2017-Oct-16 23:00N 44°09' E 028°40'0 0.0
2017-Oct-16 22:30N 44°09' E 028°40'0 0.0
2017-Oct-16 22:00N 44°09' E 028°40'0 0.0
2017-Oct-16 21:30N 44°09' E 028°40'0 0.0
2017-Oct-16 21:00N 44°09' E 028°40'0 0.0
2017-Oct-16 20:30N 44°09' E 028°40'0 0.0
2017-Oct-16 20:00N 44°09' E 028°40'0 0.0
2017-Oct-16 19:30N 44°09' E 028°40'0 0.0
2017-Oct-16 19:00N 44°09' E 028°40'0 0.0
2017-Oct-16 18:30N 44°09' E 028°40'0 0.0
2017-Oct-16 18:00N 44°09' E 028°40'0 0.0
2017-Oct-16 17:30N 44°09' E 028°40'0 0.0
2017-Oct-16 17:00N 44°09' E 028°40'0 0.0
2017-Oct-16 16:30N 44°09' E 028°40'0 0.0
2017-Oct-16 16:00N 44°09' E 028°40'0 0.0
2017-Oct-16 15:30N 44°09' E 028°40'0 0.0
2017-Oct-16 15:00N 44°09' E 028°40'0 0.0
2017-Oct-16 14:30N 44°09' E 028°40'0 0.0
2017-Oct-16 13:30N 44°09' E 028°40'0 0.0
2017-Oct-16 13:00N 44°09' E 028°40'0 0.0
2017-Oct-16 12:30N 44°09' E 028°40'0 0.0
2017-Oct-16 12:00N 44°09' E 028°40'0 0.0
2017-Oct-16 11:30N 44°09' E 028°40'0 0.0
2017-Oct-16 11:00N 44°09' E 028°40'0 0.0
2017-Oct-16 10:30N 44°09' E 028°40'0 0.0
2017-Oct-16 10:00N 44°09' E 028°40'0 0.0
2017-Oct-16 09:30N 44°09' E 028°40'0 0.0
2017-Oct-16 09:00N 44°09' E 028°40'0 0.0
2017-Oct-16 08:30N 44°09' E 028°40'0 0.0
2017-Oct-16 08:00N 44°09' E 028°40'0 0.0
2017-Oct-16 07:30N 44°09' E 028°40'0 0.0
2017-Oct-16 07:00N 44°09' E 028°40'  
Track history (hours):
 
Tides and Currents Weather Stations Pressure Air Temp Water Temp Dewpoint Dewpoint Depression Visibility Wind Speed Wind Dir Waves Ship Positions

Cevdet A

Last reported at 2017-Oct-26 06:32 UTC. Time now 2017-Nov-23 07:38 UTC.
Position N 30°56' E 032°19'.
Warning: this ship's position is 28 days out of date.

Length 129 m; draft 7.7 m.

Type: Ship (hazmat cat C). MMSI: 249537000.

Date/timePositionNaut miles runAvg speedWind from/ knotsBaromVisibWave heightAir tempDewpointWater temp
2017-Oct-26 06:32N 30°56' E 032°19'0 8.8
2017-Oct-26 06:29N 30°57' E 032°19'4 8.8
2017-Oct-26 06:00N 31°01' E 032°19'4 8.6
2017-Oct-26 05:30N 31°05' E 032°18'  
2017-Oct-22 19:48N 33°59' E 031°42'5511.1
2017-Oct-22 14:51N 34°24' E 030°43'29410.6
2017-Oct-21 11:01N 37°23' E 025°55'011.5
2017-Oct-21 11:01N 37°23' E 025°55'510.9
2017-Oct-21 10:31N 37°26' E 025°49'510.5
2017-Oct-21 10:00N 37°31' E 025°47'511.2
2017-Oct-21 09:31N 37°36' E 025°45'611.3
2017-Oct-21 09:01N 37°41' E 025°43'611.0
2017-Oct-21 08:31N 37°47' E 025°41'12110.8
2017-Oct-20 21:18N 39°48' E 025°37'410.3
2017-Oct-20 20:57N 39°50' E 025°39'511.5
2017-Oct-20 20:30N 39°53' E 025°45'611.3
2017-Oct-20 20:00N 39°56' E 025°51'611.2
2017-Oct-20 19:30N 39°60' E 025°57'2310.2
2017-Oct-20 17:14N 40°11' E 026°23'1811.4
2017-Oct-20 15:41N 40°23' E 026°40'2 8.9
2017-Oct-20 15:25N 40°25' E 026°43'511.0
2017-Oct-20 14:55N 40°27' E 026°49'97 4.6
2017-Oct-19 18:05N 40°56' E 028°51'0 0.0
2017-Oct-19 17:59N 40°56' E 028°51'0 0.0
2017-Oct-19 17:08N 40°56' E 028°51'0 0.3
2017-Oct-19 16:49N 40°56' E 028°51'2 4.1
2017-Oct-19 16:24N 40°56' E 028°53'4 9.9
2017-Oct-19 16:00N 40°56' E 028°58'510.2
2017-Oct-19 15:30N 40°52' E 029°01'510.3
2017-Oct-19 14:59N 40°47' E 029°04'511.2
2017-Oct-19 14:31N 40°45' E 029°11'611.4
2017-Oct-19 14:00N 40°45' E 029°18'5 0.2
2017-Oct-18 10:23N 40°44' E 029°24'3 7.6
2017-Oct-18 10:00N 40°44' E 029°20'4 8.7
2017-Oct-18 09:31N 40°44' E 029°14'4 7.3
2017-Oct-18 09:00N 40°44' E 029°10'3 5.7
2017-Oct-18 08:30N 40°45' E 029°06'3 6.2
2017-Oct-18 07:59N 40°47' E 029°03'3 6.1
2017-Oct-18 07:31N 40°49' E 028°60'3 6.2
2017-Oct-18 07:01N 40°52' E 028°57'5 9.1
2017-Oct-18 06:29N 40°56' E 028°56'46 5.1
2017-Oct-17 21:21N 41°42' E 029°08'2811.2
2017-Oct-17 18:49N 42°10' E 029°07'310.9
2017-Oct-17 18:31N 42°14' E 029°07'611.0
2017-Oct-17 18:00N 42°19' E 029°07'611.2
2017-Oct-17 17:31N 42°25' E 029°07'611.3
2017-Oct-17 17:01N 42°30' E 029°08'611.2
2017-Oct-17 16:30N 42°36' E 029°08'611.5
2017-Oct-17 16:00N 42°42' E 029°08'611.4
2017-Oct-17 15:30N 42°47' E 029°08'611.4
2017-Oct-17 15:00N 42°53' E 029°08'611.5
2017-Oct-17 14:31N 42°59' E 029°08'611.3
2017-Oct-17 14:01N 43°05' E 029°07'611.3
2017-Oct-17 13:31N 43°10' E 029°07'611.2
2017-Oct-17 13:00N 43°16' E 029°07'611.3
2017-Oct-17 12:30N 43°21' E 029°07'611.1
2017-Oct-17 12:00N 43°27' E 029°07'510.7
2017-Oct-17 11:30N 43°32' E 029°06'510.7
2017-Oct-17 11:00N 43°37' E 029°03'511.0
2017-Oct-17 10:31N 43°42' E 028°59'611.0
2017-Oct-17 10:01N 43°47' E 028°56'510.9
2017-Oct-17 09:30N 43°52' E 028°53'510.9
2017-Oct-17 09:00N 43°57' E 028°50'510.7
2017-Oct-17 08:30N 44°01' E 028°46'510.7
2017-Oct-17 08:00N 44°06' E 028°42'4 7.1
2017-Oct-17 07:31N 44°09' E 028°40'0 0.2
2017-Oct-17 07:00N 44°09' E 028°40'0 0.0
2017-Oct-17 06:30N 44°09' E 028°40'0 0.0
2017-Oct-17 06:00N 44°09' E 028°40'0 0.0
2017-Oct-17 05:30N 44°09' E 028°40'0 0.0
2017-Oct-17 05:00N 44°09' E 028°40'0 0.0
2017-Oct-17 04:30N 44°09' E 028°40'0 0.0
2017-Oct-17 04:00N 44°09' E 028°40'0 0.0
2017-Oct-17 03:15N 44°09' E 028°40'0 0.0
2017-Oct-17 03:00N 44°09' E 028°40'0 0.0
2017-Oct-17 02:30N 44°09' E 028°40'0 0.0
2017-Oct-17 02:00N 44°09' E 028°40'0 0.0
2017-Oct-17 01:27N 44°09' E 028°40'0 0.0
2017-Oct-17 01:00N 44°09' E 028°40'0 0.0
2017-Oct-17 00:30N 44°09' E 028°40'0 0.0
2017-Oct-17 00:00N 44°09' E 028°40'0 0.0
2017-Oct-16 23:30N 44°09' E 028°40'0 0.0
2017-Oct-16 23:00N 44°09' E 028°40'0 0.0
2017-Oct-16 22:30N 44°09' E 028°40'0 0.0
2017-Oct-16 22:00N 44°09' E 028°40'0 0.0
2017-Oct-16 21:30N 44°09' E 028°40'0 0.0
2017-Oct-16 21:00N 44°09' E 028°40'0 0.0
2017-Oct-16 20:30N 44°09' E 028°40'0 0.0
2017-Oct-16 20:00N 44°09' E 028°40'0 0.0
2017-Oct-16 19:30N 44°09' E 028°40'0 0.0
2017-Oct-16 19:00N 44°09' E 028°40'0 0.0
2017-Oct-16 18:30N 44°09' E 028°40'0 0.0
2017-Oct-16 18:00N 44°09' E 028°40'0 0.0
2017-Oct-16 17:30N 44°09' E 028°40'0 0.0
2017-Oct-16 17:00N 44°09' E 028°40'0 0.0
2017-Oct-16 16:30N 44°09' E 028°40'0 0.0
2017-Oct-16 16:00N 44°09' E 028°40'0 0.0
2017-Oct-16 15:30N 44°09' E 028°40'0 0.0
2017-Oct-16 15:00N 44°09' E 028°40'0 0.0
2017-Oct-16 14:30N 44°09' E 028°40'0 0.0
2017-Oct-16 13:30N 44°09' E 028°40'0 0.0
2017-Oct-16 13:00N 44°09' E 028°40'0 0.0
2017-Oct-16 12:30N 44°09' E 028°40'0 0.0
2017-Oct-16 12:00N 44°09' E 028°40'0 0.0
2017-Oct-16 11:30N 44°09' E 028°40'0 0.0
2017-Oct-16 11:00N 44°09' E 028°40'0 0.0
2017-Oct-16 10:30N 44°09' E 028°40'0 0.0
2017-Oct-16 10:00N 44°09' E 028°40'0 0.0
2017-Oct-16 09:30N 44°09' E 028°40'0 0.0
2017-Oct-16 09:00N 44°09' E 028°40'0 0.0
2017-Oct-16 08:30N 44°09' E 028°40'0 0.0
2017-Oct-16 08:00N 44°09' E 028°40'0 0.0
2017-Oct-16 07:30N 44°09' E 028°40'0 0.0
2017-Oct-16 07:00N 44°09' E 028°40'  

Dump ship's entire track history